sensor_id;sensor_type;location;lat;lon;timestamp;temperature;humidity
54192;DHT22;40101;53.002;6.488;2022-09-06T00:00:14;20.80;95.00
54192;DHT22;40101;53.002;6.488;2022-09-06T00:02:42;20.80;95.00
54192;DHT22;40101;53.002;6.488;2022-09-06T00:05:10;20.80;95.10
54192;DHT22;40101;53.002;6.488;2022-09-06T00:07:36;20.90;95.30
54192;DHT22;40101;53.002;6.488;2022-09-06T00:10:03;20.70;95.30
54192;DHT22;40101;53.002;6.488;2022-09-06T00:12:29;20.60;95.30
54192;DHT22;40101;53.002;6.488;2022-09-06T00:14:55;20.70;95.40
54192;DHT22;40101;53.002;6.488;2022-09-06T00:17:21;20.60;95.50
54192;DHT22;40101;53.002;6.488;2022-09-06T00:19:46;20.70;95.60
54192;DHT22;40101;53.002;6.488;2022-09-06T00:22:12;20.60;95.80
54192;DHT22;40101;53.002;6.488;2022-09-06T00:24:37;20.50;96.30
54192;DHT22;40101;53.002;6.488;2022-09-06T00:27:04;20.40;96.50
54192;DHT22;40101;53.002;6.488;2022-09-06T00:29:30;20.40;96.20
54192;DHT22;40101;53.002;6.488;2022-09-06T00:31:56;20.40;96.40
54192;DHT22;40101;53.002;6.488;2022-09-06T00:34:21;20.40;96.10
54192;DHT22;40101;53.002;6.488;2022-09-06T00:36:47;20.30;96.40
54192;DHT22;40101;53.002;6.488;2022-09-06T00:39:13;20.30;96.90
54192;DHT22;40101;53.002;6.488;2022-09-06T00:41:38;20.20;97.30
54192;DHT22;40101;53.002;6.488;2022-09-06T00:44:04;20.10;97.60
54192;DHT22;40101;53.002;6.488;2022-09-06T00:46:30;20.00;98.20
54192;DHT22;40101;53.002;6.488;2022-09-06T00:49:05;20.00;98.50
54192;DHT22;40101;53.002;6.488;2022-09-06T00:51:33;20.00;98.10
54192;DHT22;40101;53.002;6.488;2022-09-06T00:54:02;20.00;98.00
54192;DHT22;40101;53.002;6.488;2022-09-06T00:56:29;20.00;98.00
54192;DHT22;40101;53.002;6.488;2022-09-06T00:58:56;20.00;98.40
54192;DHT22;40101;53.002;6.488;2022-09-06T01:09:18;19.80;99.30
54192;DHT22;40101;53.002;6.488;2022-09-06T01:11:55;19.80;99.40
54192;DHT22;40101;53.002;6.488;2022-09-06T01:14:45;19.80;99.80
54192;DHT22;40101;53.002;6.488;2022-09-06T01:28:01;19.50;99.90
54192;DHT22;40101;53.002;6.488;2022-09-06T01:30:33;19.40;99.90
54192;DHT22;40101;53.002;6.488;2022-09-06T01:33:29;19.30;99.90
54192;DHT22;40101;53.002;6.488;2022-09-06T01:35:59;19.20;99.90
54192;DHT22;40101;53.002;6.488;2022-09-06T01:38:26;19.20;99.90
54192;DHT22;40101;53.002;6.488;2022-09-06T01:40:53;19.20;99.90
54192;DHT22;40101;53.002;6.488;2022-09-06T01:43:34;19.20;99.90
54192;DHT22;40101;53.002;6.488;2022-09-06T01:46:30;19.10;99.90
54192;DHT22;40101;53.002;6.488;2022-09-06T01:52:32;19.10;99.90
54192;DHT22;40101;53.002;6.488;2022-09-06T02:01:04;19.00;99.90
54192;DHT22;40101;53.002;6.488;2022-09-06T02:03:46;19.10;99.90
54192;DHT22;40101;53.002;6.488;2022-09-06T02:06:21;19.00;99.90
54192;DHT22;40101;53.002;6.488;2022-09-06T02:08:52;19.00;99.90
54192;DHT22;40101;53.002;6.488;2022-09-06T02:11:20;18.90;99.90
54192;DHT22;40101;53.002;6.488;2022-09-06T02:13:50;18.90;99.90
54192;DHT22;40101;53.002;6.488;2022-09-06T02:16:19;19.00;99.90
54192;DHT22;40101;53.002;6.488;2022-09-06T02:18:59;19.00;99.90
54192;DHT22;40101;53.002;6.488;2022-09-06T02:21:33;19.00;99.90
54192;DHT22;40101;53.002;6.488;2022-09-06T02:24:02;19.00;99.90
54192;DHT22;40101;53.002;6.488;2022-09-06T02:26:33;19.00;99.90
54192;DHT22;40101;53.002;6.488;2022-09-06T02:29:00;19.00;99.90
54192;DHT22;40101;53.002;6.488;2022-09-06T02:32:00;19.00;99.90
54192;DHT22;40101;53.002;6.488;2022-09-06T02:34:28;19.00;99.90
54192;DHT22;40101;53.002;6.488;2022-09-06T02:36:54;18.90;99.90
54192;DHT22;40101;53.002;6.488;2022-09-06T02:39:20;18.90;99.90
54192;DHT22;40101;53.002;6.488;2022-09-06T02:41:46;18.90;99.90
54192;DHT22;40101;53.002;6.488;2022-09-06T02:44:13;18.80;99.90
54192;DHT22;40101;53.002;6.488;2022-09-06T02:46:38;18.70;99.90
54192;DHT22;40101;53.002;6.488;2022-09-06T02:49:04;18.70;99.90
54192;DHT22;40101;53.002;6.488;2022-09-06T02:51:30;18.70;99.90
54192;DHT22;40101;53.002;6.488;2022-09-06T02:54:00;18.60;99.90
54192;DHT22;40101;53.002;6.488;2022-09-06T02:56:25;18.60;99.90
54192;DHT22;40101;53.002;6.488;2022-09-06T02:58:51;18.60;99.90
54192;DHT22;40101;53.002;6.488;2022-09-06T03:01:16;18.60;99.90
54192;DHT22;40101;53.002;6.488;2022-09-06T03:03:42;18.60;99.90
54192;DHT22;40101;53.002;6.488;2022-09-06T03:06:07;18.60;99.90
54192;DHT22;40101;53.002;6.488;2022-09-06T03:08:33;18.60;99.90
54192;DHT22;40101;53.002;6.488;2022-09-06T03:11:00;18.60;99.90
54192;DHT22;40101;53.002;6.488;2022-09-06T03:13:26;18.50;99.90
54192;DHT22;40101;53.002;6.488;2022-09-06T03:15:57;18.50;99.90
54192;DHT22;40101;53.002;6.488;2022-09-06T03:18:25;18.50;99.90
54192;DHT22;40101;53.002;6.488;2022-09-06T03:20:52;18.50;99.90
54192;DHT22;40101;53.002;6.488;2022-09-06T03:23:21;18.50;99.90
54192;DHT22;40101;53.002;6.488;2022-09-06T03:25:48;18.50;99.90
54192;DHT22;40101;53.002;6.488;2022-09-06T03:28:14;18.40;99.90
54192;DHT22;40101;53.002;6.488;2022-09-06T03:30:43;18.50;99.90
54192;DHT22;40101;53.002;6.488;2022-09-06T03:33:09;18.50;99.90
54192;DHT22;40101;53.002;6.488;2022-09-06T03:35:35;18.40;99.90
54192;DHT22;40101;53.002;6.488;2022-09-06T03:38:01;18.50;99.90
54192;DHT22;40101;53.002;6.488;2022-09-06T03:40:26;18.40;99.90
54192;DHT22;40101;53.002;6.488;2022-09-06T03:42:52;18.50;99.90
54192;DHT22;40101;53.002;6.488;2022-09-06T03:45:17;18.50;99.90
54192;DHT22;40101;53.002;6.488;2022-09-06T03:47:43;18.40;99.90
54192;DHT22;40101;53.002;6.488;2022-09-06T03:50:09;18.50;99.90
54192;DHT22;40101;53.002;6.488;2022-09-06T03:52:34;18.50;99.90
54192;DHT22;40101;53.002;6.488;2022-09-06T03:55:00;18.50;99.90
54192;DHT22;40101;53.002;6.488;2022-09-06T03:57:27;18.50;99.90
54192;DHT22;40101;53.002;6.488;2022-09-06T03:59:52;18.40;99.90
54192;DHT22;40101;53.002;6.488;2022-09-06T04:02:18;18.40;99.90
54192;DHT22;40101;53.002;6.488;2022-09-06T04:04:43;18.40;99.90
54192;DHT22;40101;53.002;6.488;2022-09-06T04:07:12;18.50;99.90
54192;DHT22;40101;53.002;6.488;2022-09-06T04:09:37;18.50;99.90
54192;DHT22;40101;53.002;6.488;2022-09-06T04:12:03;18.50;99.90
54192;DHT22;40101;53.002;6.488;2022-09-06T04:14:29;18.50;99.90
54192;DHT22;40101;53.002;6.488;2022-09-06T04:16:54;18.50;99.90
54192;DHT22;40101;53.002;6.488;2022-09-06T04:19:20;18.50;99.90
54192;DHT22;40101;53.002;6.488;2022-09-06T04:21:46;18.50;99.90
54192;DHT22;40101;53.002;6.488;2022-09-06T04:24:12;18.60;99.90
54192;DHT22;40101;53.002;6.488;2022-09-06T04:26:37;18.50;99.90
54192;DHT22;40101;53.002;6.488;2022-09-06T04:29:03;18.60;99.90
54192;DHT22;40101;53.002;6.488;2022-09-06T04:31:29;18.50;99.90
54192;DHT22;40101;53.002;6.488;2022-09-06T04:33:55;18.50;99.90
54192;DHT22;40101;53.002;6.488;2022-09-06T04:36:20;18.50;99.90
54192;DHT22;40101;53.002;6.488;2022-09-06T04:38:46;18.40;99.90
54192;DHT22;40101;53.002;6.488;2022-09-06T04:41:13;18.50;99.90
54192;DHT22;40101;53.002;6.488;2022-09-06T04:43:40;18.50;99.90
54192;DHT22;40101;53.002;6.488;2022-09-06T04:48:44;18.50;99.90
54192;DHT22;40101;53.002;6.488;2022-09-06T04:51:09;18.50;99.90
54192;DHT22;40101;53.002;6.488;2022-09-06T04:53:35;18.50;99.90
54192;DHT22;40101;53.002;6.488;2022-09-06T04:56:01;18.40;99.90
54192;DHT22;40101;53.002;6.488;2022-09-06T04:58:26;18.40;99.90
54192;DHT22;40101;53.002;6.488;2022-09-06T05:00:52;18.30;99.90
54192;DHT22;40101;53.002;6.488;2022-09-06T05:03:18;18.30;99.90
54192;DHT22;40101;53.002;6.488;2022-09-06T05:05:43;18.20;99.90
54192;DHT22;40101;53.002;6.488;2022-09-06T05:08:09;18.20;99.90
54192;DHT22;40101;53.002;6.488;2022-09-06T05:10:34;18.20;99.90
54192;DHT22;40101;53.002;6.488;2022-09-06T05:13:00;18.10;99.90
54192;DHT22;40101;53.002;6.488;2022-09-06T05:15:26;18.10;99.90
54192;DHT22;40101;53.002;6.488;2022-09-06T05:17:51;18.10;99.90
54192;DHT22;40101;53.002;6.488;2022-09-06T05:20:17;18.00;99.90
54192;DHT22;40101;53.002;6.488;2022-09-06T05:22:51;18.00;99.90
54192;DHT22;40101;53.002;6.488;2022-09-06T05:25:17;17.90;99.90
54192;DHT22;40101;53.002;6.488;2022-09-06T05:27:43;17.90;99.90
54192;DHT22;40101;53.002;6.488;2022-09-06T05:30:09;17.90;99.90
54192;DHT22;40101;53.002;6.488;2022-09-06T05:32:35;17.90;99.90
54192;DHT22;40101;53.002;6.488;2022-09-06T05:35:00;17.90;99.90
54192;DHT22;40101;53.002;6.488;2022-09-06T05:37:26;17.90;99.90
54192;DHT22;40101;53.002;6.488;2022-09-06T05:39:51;17.90;99.90
54192;DHT22;40101;53.002;6.488;2022-09-06T05:42:17;17.90;99.90
54192;DHT22;40101;53.002;6.488;2022-09-06T05:44:42;17.90;99.90
54192;DHT22;40101;53.002;6.488;2022-09-06T05:47:08;17.90;99.90
54192;DHT22;40101;53.002;6.488;2022-09-06T05:49:34;17.90;99.90
54192;DHT22;40101;53.002;6.488;2022-09-06T05:51:59;17.90;99.90
54192;DHT22;40101;53.002;6.488;2022-09-06T05:54:25;17.90;99.90
54192;DHT22;40101;53.002;6.488;2022-09-06T05:56:51;17.90;99.90
54192;DHT22;40101;53.002;6.488;2022-09-06T05:59:16;17.80;99.90
54192;DHT22;40101;53.002;6.488;2022-09-06T06:01:47;17.80;99.90
54192;DHT22;40101;53.002;6.488;2022-09-06T06:04:13;17.80;99.90
54192;DHT22;40101;53.002;6.488;2022-09-06T06:06:39;17.90;99.90
54192;DHT22;40101;53.002;6.488;2022-09-06T06:09:05;17.80;99.90
54192;DHT22;40101;53.002;6.488;2022-09-06T06:11:30;17.80;99.90
54192;DHT22;40101;53.002;6.488;2022-09-06T06:13:56;17.80;99.90
54192;DHT22;40101;53.002;6.488;2022-09-06T06:16:23;17.80;99.90
54192;DHT22;40101;53.002;6.488;2022-09-06T06:18:50;17.90;99.90
54192;DHT22;40101;53.002;6.488;2022-09-06T06:21:24;17.90;99.90
54192;DHT22;40101;53.002;6.488;2022-09-06T06:23:51;17.90;99.90
54192;DHT22;40101;53.002;6.488;2022-09-06T06:26:18;18.00;99.90
54192;DHT22;40101;53.002;6.488;2022-09-06T06:28:44;18.00;99.90
54192;DHT22;40101;53.002;6.488;2022-09-06T06:31:10;18.00;99.90
54192;DHT22;40101;53.002;6.488;2022-09-06T06:33:37;18.10;99.90
54192;DHT22;40101;53.002;6.488;2022-09-06T06:38:39;18.10;99.90
54192;DHT22;40101;53.002;6.488;2022-09-06T06:41:06;18.20;99.90
54192;DHT22;40101;53.002;6.488;2022-09-06T06:43:33;18.20;99.90
54192;DHT22;40101;53.002;6.488;2022-09-06T06:46:23;18.20;99.90
54192;DHT22;40101;53.002;6.488;2022-09-06T06:48:49;18.20;99.90
54192;DHT22;40101;53.002;6.488;2022-09-06T06:51:17;18.20;99.90
54192;DHT22;40101;53.002;6.488;2022-09-06T06:53:46;18.20;99.90
54192;DHT22;40101;53.002;6.488;2022-09-06T06:56:17;18.20;99.90
54192;DHT22;40101;53.002;6.488;2022-09-06T06:58:45;18.20;99.90
54192;DHT22;40101;53.002;6.488;2022-09-06T07:01:11;18.20;99.90
54192;DHT22;40101;53.002;6.488;2022-09-06T07:03:38;18.20;99.90
54192;DHT22;40101;53.002;6.488;2022-09-06T07:06:04;18.30;99.90
54192;DHT22;40101;53.002;6.488;2022-09-06T07:08:30;18.40;99.90
54192;DHT22;40101;53.002;6.488;2022-09-06T07:10:55;18.50;99.90
54192;DHT22;40101;53.002;6.488;2022-09-06T07:13:21;18.60;99.90
54192;DHT22;40101;53.002;6.488;2022-09-06T07:15:46;18.80;99.90
54192;DHT22;40101;53.002;6.488;2022-09-06T07:18:15;18.80;99.90
54192;DHT22;40101;53.002;6.488;2022-09-06T07:20:41;18.90;99.90
54192;DHT22;40101;53.002;6.488;2022-09-06T07:23:06;18.90;99.90
54192;DHT22;40101;53.002;6.488;2022-09-06T07:25:32;19.00;99.90
54192;DHT22;40101;53.002;6.488;2022-09-06T07:28:03;19.20;99.90
54192;DHT22;40101;53.002;6.488;2022-09-06T07:30:32;19.30;99.90
54192;DHT22;40101;53.002;6.488;2022-09-06T07:32:58;19.50;99.90
54192;DHT22;40101;53.002;6.488;2022-09-06T07:35:25;19.80;99.90
54192;DHT22;40101;53.002;6.488;2022-09-06T07:37:53;20.10;99.90
54192;DHT22;40101;53.002;6.488;2022-09-06T07:40:19;20.40;99.90
54192;DHT22;40101;53.002;6.488;2022-09-06T07:42:51;20.60;99.90
54192;DHT22;40101;53.002;6.488;2022-09-06T07:45:17;20.80;99.90
54192;DHT22;40101;53.002;6.488;2022-09-06T07:47:43;21.10;99.90
54192;DHT22;40101;53.002;6.488;2022-09-06T07:50:10;21.50;99.90
54192;DHT22;40101;53.002;6.488;2022-09-06T07:52:35;21.70;99.90
54192;DHT22;40101;53.002;6.488;2022-09-06T07:55:01;21.80;99.90
54192;DHT22;40101;53.002;6.488;2022-09-06T07:57:27;21.80;99.90
54192;DHT22;40101;53.002;6.488;2022-09-06T07:59:52;21.50;99.90
54192;DHT22;40101;53.002;6.488;2022-09-06T08:02:18;21.40;99.90
54192;DHT22;40101;53.002;6.488;2022-09-06T08:04:44;21.30;99.90
54192;DHT22;40101;53.002;6.488;2022-09-06T08:07:09;21.60;99.90
54192;DHT22;40101;53.002;6.488;2022-09-06T08:09:35;22.20;99.90
54192;DHT22;40101;53.002;6.488;2022-09-06T08:12:02;23.50;99.90
54192;DHT22;40101;53.002;6.488;2022-09-06T08:14:31;25.00;99.90
54192;DHT22;40101;53.002;6.488;2022-09-06T08:16:57;26.30;99.90
54192;DHT22;40101;53.002;6.488;2022-09-06T08:19:23;27.40;97.50
54192;DHT22;40101;53.002;6.488;2022-09-06T08:21:49;28.20;95.40
54192;DHT22;40101;53.002;6.488;2022-09-06T08:24:14;28.70;93.90
54192;DHT22;40101;53.002;6.488;2022-09-06T08:26:40;29.10;92.50
54192;DHT22;40101;53.002;6.488;2022-09-06T08:29:08;29.40;91.10
54192;DHT22;40101;53.002;6.488;2022-09-06T08:31:37;29.50;89.30
54192;DHT22;40101;53.002;6.488;2022-09-06T08:34:03;29.30;88.20
54192;DHT22;40101;53.002;6.488;2022-09-06T08:36:29;28.90;87.60
54192;DHT22;40101;53.002;6.488;2022-09-06T08:38:56;28.80;87.50
54192;DHT22;40101;53.002;6.488;2022-09-06T08:41:25;28.90;86.70
54192;DHT22;40101;53.002;6.488;2022-09-06T08:46:37;28.20;86.40
54192;DHT22;40101;53.002;6.488;2022-09-06T08:49:06;27.30;87.80
54192;DHT22;40101;53.002;6.488;2022-09-06T08:59:58;25.40;92.20
54192;DHT22;40101;53.002;6.488;2022-09-06T09:02:25;25.30;92.10
54192;DHT22;40101;53.002;6.488;2022-09-06T09:04:56;25.30;92.40
54192;DHT22;40101;53.002;6.488;2022-09-06T09:10:14;25.50;92.80
54192;DHT22;40101;53.002;6.488;2022-09-06T09:12:50;26.80;92.00
54192;DHT22;40101;53.002;6.488;2022-09-06T09:15:16;28.40;90.10
54192;DHT22;40101;53.002;6.488;2022-09-06T09:17:44;29.60;87.30
54192;DHT22;40101;53.002;6.488;2022-09-06T09:20:11;30.40;83.10
54192;DHT22;40101;53.002;6.488;2022-09-06T09:22:38;30.80;80.00
54192;DHT22;40101;53.002;6.488;2022-09-06T09:25:06;31.30;77.50
54192;DHT22;40101;53.002;6.488;2022-09-06T09:27:33;31.60;75.20
54192;DHT22;40101;53.002;6.488;2022-09-06T09:30:03;31.50;74.70
54192;DHT22;40101;53.002;6.488;2022-09-06T09:32:37;31.40;73.80
54192;DHT22;40101;53.002;6.488;2022-09-06T09:35:26;31.30;73.80
54192;DHT22;40101;53.002;6.488;2022-09-06T09:38:20;30.90;73.70
54192;DHT22;40101;53.002;6.488;2022-09-06T09:40:52;30.40;73.90
54192;DHT22;40101;53.002;6.488;2022-09-06T09:43:25;30.20;73.40
54192;DHT22;40101;53.002;6.488;2022-09-06T09:48:34;30.50;74.30
54192;DHT22;40101;53.002;6.488;2022-09-06T09:54:00;30.80;70.70
54192;DHT22;40101;53.002;6.488;2022-09-06T09:56:39;31.10;70.30
54192;DHT22;40101;53.002;6.488;2022-09-06T09:59:14;31.00;69.80
54192;DHT22;40101;53.002;6.488;2022-09-06T10:01:41;31.10;69.10
54192;DHT22;40101;53.002;6.488;2022-09-06T10:04:10;30.90;70.00
54192;DHT22;40101;53.002;6.488;2022-09-06T10:06:37;30.70;70.00
54192;DHT22;40101;53.002;6.488;2022-09-06T10:09:18;30.80;69.50
54192;DHT22;40101;53.002;6.488;2022-09-06T10:11:54;30.80;69.50
54192;DHT22;40101;53.002;6.488;2022-09-06T10:14:43;30.70;69.60
54192;DHT22;40101;53.002;6.488;2022-09-06T10:17:26;31.00;69.80
54192;DHT22;40101;53.002;6.488;2022-09-06T10:19:54;30.90;69.50
54192;DHT22;40101;53.002;6.488;2022-09-06T10:28:38;30.60;69.80
54192;DHT22;40101;53.002;6.488;2022-09-06T10:30:46;30.40;70.40
54192;DHT22;40101;53.002;6.488;2022-09-06T10:35:56;29.70;71.20
54192;DHT22;40101;53.002;6.488;2022-09-06T10:41:25;29.00;73.10
54192;DHT22;40101;53.002;6.488;2022-09-06T10:43:59;28.60;73.60
54192;DHT22;40101;53.002;6.488;2022-09-06T10:46:32;28.40;75.00
54192;DHT22;40101;53.002;6.488;2022-09-06T10:48:59;28.30;76.00
54192;DHT22;40101;53.002;6.488;2022-09-06T11:02:18;27.70;76.90
54192;DHT22;40101;53.002;6.488;2022-09-06T11:04:50;27.80;77.10
54192;DHT22;40101;53.002;6.488;2022-09-06T11:07:28;27.70;76.00
54192;DHT22;40101;53.002;6.488;2022-09-06T11:10:05;27.60;76.50
54192;DHT22;40101;53.002;6.488;2022-09-06T11:16:12;27.60;76.90
54192;DHT22;40101;53.002;6.488;2022-09-06T11:19:02;27.50;76.60
54192;DHT22;40101;53.002;6.488;2022-09-06T11:24:50;27.40;77.40
54192;DHT22;40101;53.002;6.488;2022-09-06T11:29:54;27.60;76.90
54192;DHT22;40101;53.002;6.488;2022-09-06T11:32:28;27.60;76.90
54192;DHT22;40101;53.002;6.488;2022-09-06T11:34:57;27.50;76.70
54192;DHT22;40101;53.002;6.488;2022-09-06T11:37:26;27.50;76.00
54192;DHT22;40101;53.002;6.488;2022-09-06T11:42:41;27.50;76.10
54192;DHT22;40101;53.002;6.488;2022-09-06T11:50:57;27.70;75.60
54192;DHT22;40101;53.002;6.488;2022-09-06T11:53:29;27.70;76.20
54192;DHT22;40101;53.002;6.488;2022-09-06T11:58:48;27.70;75.60
54192;DHT22;40101;53.002;6.488;2022-09-06T12:06:21;27.70;76.10
54192;DHT22;40101;53.002;6.488;2022-09-06T12:08:48;27.70;76.00
54192;DHT22;40101;53.002;6.488;2022-09-06T12:11:43;27.70;75.80
54192;DHT22;40101;53.002;6.488;2022-09-06T12:20:09;27.60;76.00
54192;DHT22;40101;53.002;6.488;2022-09-06T12:28:01;27.80;74.80
54192;DHT22;40101;53.002;6.488;2022-09-06T12:30:47;27.80;75.10
54192;DHT22;40101;53.002;6.488;2022-09-06T12:33:30;27.80;75.00
54192;DHT22;40101;53.002;6.488;2022-09-06T12:36:31;27.90;74.90
54192;DHT22;40101;53.002;6.488;2022-09-06T12:41:27;27.90;74.20
54192;DHT22;40101;53.002;6.488;2022-09-06T12:43:54;28.00;74.90
54192;DHT22;40101;53.002;6.488;2022-09-06T12:46:23;28.00;73.80
54192;DHT22;40101;53.002;6.488;2022-09-06T12:49:06;28.10;73.60
54192;DHT22;40101;53.002;6.488;2022-09-06T12:51:33;28.20;72.80
54192;DHT22;40101;53.002;6.488;2022-09-06T12:54:02;28.30;73.90
54192;DHT22;40101;53.002;6.488;2022-09-06T12:56:32;28.40;73.60
54192;DHT22;40101;53.002;6.488;2022-09-06T12:59:12;28.50;72.40
54192;DHT22;40101;53.002;6.488;2022-09-06T13:01:42;28.50;72.10
54192;DHT22;40101;53.002;6.488;2022-09-06T13:04:21;28.60;72.20
54192;DHT22;40101;53.002;6.488;2022-09-06T13:06:50;28.50;71.50
54192;DHT22;40101;53.002;6.488;2022-09-06T13:09:18;28.40;72.70
54192;DHT22;40101;53.002;6.488;2022-09-06T13:11:48;28.10;72.00
54192;DHT22;40101;53.002;6.488;2022-09-06T13:14:22;27.90;73.50
54192;DHT22;40101;53.002;6.488;2022-09-06T13:16:51;27.60;73.90
54192;DHT22;40101;53.002;6.488;2022-09-06T13:19:35;27.60;74.20
54192;DHT22;40101;53.002;6.488;2022-09-06T13:22:03;27.70;74.40
54192;DHT22;40101;53.002;6.488;2022-09-06T13:29:56;27.80;76.20
54192;DHT22;40101;53.002;6.488;2022-09-06T13:32:22;27.80;76.20
54192;DHT22;40101;53.002;6.488;2022-09-06T13:34:49;27.70;76.20
54192;DHT22;40101;53.002;6.488;2022-09-06T13:37:24;27.70;76.70
54192;DHT22;40101;53.002;6.488;2022-09-06T13:39:51;27.70;76.30
54192;DHT22;40101;53.002;6.488;2022-09-06T13:42:33;27.90;76.50
54192;DHT22;40101;53.002;6.488;2022-09-06T13:45:29;28.00;76.00
54192;DHT22;40101;53.002;6.488;2022-09-06T13:47:55;28.00;75.20
54192;DHT22;40101;53.002;6.488;2022-09-06T13:50:23;28.00;75.30
54192;DHT22;40101;53.002;6.488;2022-09-06T13:52:49;28.10;74.70
54192;DHT22;40101;53.002;6.488;2022-09-06T13:55:15;28.10;74.80
54192;DHT22;40101;53.002;6.488;2022-09-06T13:57:44;28.00;74.80
54192;DHT22;40101;53.002;6.488;2022-09-06T14:00:09;27.90;75.10
54192;DHT22;40101;53.002;6.488;2022-09-06T14:02:39;27.70;75.50
54192;DHT22;40101;53.002;6.488;2022-09-06T14:05:06;27.60;76.60
54192;DHT22;40101;53.002;6.488;2022-09-06T14:07:31;27.60;76.30
54192;DHT22;40101;53.002;6.488;2022-09-06T14:09:57;27.60;76.50
54192;DHT22;40101;53.002;6.488;2022-09-06T14:12:25;27.60;77.00
54192;DHT22;40101;53.002;6.488;2022-09-06T14:14:51;27.80;76.10
54192;DHT22;40101;53.002;6.488;2022-09-06T14:17:17;28.00;74.80
54192;DHT22;40101;53.002;6.488;2022-09-06T14:19:43;28.00;73.80
54192;DHT22;40101;53.002;6.488;2022-09-06T14:22:08;28.20;73.60
54192;DHT22;40101;53.002;6.488;2022-09-06T14:24:34;28.20;72.20
54192;DHT22;40101;53.002;6.488;2022-09-06T14:27:00;28.30;72.20
54192;DHT22;40101;53.002;6.488;2022-09-06T14:29:26;28.20;71.90
54192;DHT22;40101;53.002;6.488;2022-09-06T14:31:52;28.20;71.60
54192;DHT22;40101;53.002;6.488;2022-09-06T14:34:18;28.20;72.00
54192;DHT22;40101;53.002;6.488;2022-09-06T14:36:44;28.30;71.70
54192;DHT22;40101;53.002;6.488;2022-09-06T14:39:09;28.30;71.70
54192;DHT22;40101;53.002;6.488;2022-09-06T14:41:35;28.40;71.70
54192;DHT22;40101;53.002;6.488;2022-09-06T14:44:01;28.40;71.30
54192;DHT22;40101;53.002;6.488;2022-09-06T14:46:27;28.40;70.90
54192;DHT22;40101;53.002;6.488;2022-09-06T14:49:02;28.40;71.50
54192;DHT22;40101;53.002;6.488;2022-09-06T14:51:28;28.10;71.70
54192;DHT22;40101;53.002;6.488;2022-09-06T14:54:07;27.90;72.00
54192;DHT22;40101;53.002;6.488;2022-09-06T14:56:33;27.70;73.10
54192;DHT22;40101;53.002;6.488;2022-09-06T14:58:59;27.60;72.80
54192;DHT22;40101;53.002;6.488;2022-09-06T15:01:27;27.60;73.30
54192;DHT22;40101;53.002;6.488;2022-09-06T15:03:58;27.50;73.60
54192;DHT22;40101;53.002;6.488;2022-09-06T15:06:25;27.50;73.30
54192;DHT22;40101;53.002;6.488;2022-09-06T15:08:52;27.60;73.40
54192;DHT22;40101;53.002;6.488;2022-09-06T15:11:38;27.80;73.00
54192;DHT22;40101;53.002;6.488;2022-09-06T15:14:09;27.80;73.30
54192;DHT22;40101;53.002;6.488;2022-09-06T15:16:36;27.80;72.90
54192;DHT22;40101;53.002;6.488;2022-09-06T15:19:02;28.00;73.20
54192;DHT22;40101;53.002;6.488;2022-09-06T15:21:28;28.00;72.70
54192;DHT22;40101;53.002;6.488;2022-09-06T15:23:54;28.10;72.50
54192;DHT22;40101;53.002;6.488;2022-09-06T15:26:20;28.20;72.50
54192;DHT22;40101;53.002;6.488;2022-09-06T15:28:46;28.30;72.30
54192;DHT22;40101;53.002;6.488;2022-09-06T15:31:12;28.30;72.20
54192;DHT22;40101;53.002;6.488;2022-09-06T15:33:38;28.30;71.80
54192;DHT22;40101;53.002;6.488;2022-09-06T15:36:06;28.30;72.70
54192;DHT22;40101;53.002;6.488;2022-09-06T15:38:33;28.30;71.00
54192;DHT22;40101;53.002;6.488;2022-09-06T15:41:12;28.10;70.90
54192;DHT22;40101;53.002;6.488;2022-09-06T15:43:44;28.20;72.20
54192;DHT22;40101;53.002;6.488;2022-09-06T15:46:13;28.00;71.90
54192;DHT22;40101;53.002;6.488;2022-09-06T15:48:44;28.00;71.70
54192;DHT22;40101;53.002;6.488;2022-09-06T15:51:12;27.80;71.70
54192;DHT22;40101;53.002;6.488;2022-09-06T15:53:38;27.90;72.00
54192;DHT22;40101;53.002;6.488;2022-09-06T15:56:06;27.90;72.20
54192;DHT22;40101;53.002;6.488;2022-09-06T15:58:32;27.90;72.00
54192;DHT22;40101;53.002;6.488;2022-09-06T16:01:09;27.90;71.40
54192;DHT22;40101;53.002;6.488;2022-09-06T16:03:43;27.90;72.40
54192;DHT22;40101;53.002;6.488;2022-09-06T16:06:12;27.90;72.00
54192;DHT22;40101;53.002;6.488;2022-09-06T16:08:38;27.90;72.10
54192;DHT22;40101;53.002;6.488;2022-09-06T16:11:09;27.90;72.30
54192;DHT22;40101;53.002;6.488;2022-09-06T16:13:36;27.70;73.70
54192;DHT22;40101;53.002;6.488;2022-09-06T16:16:05;27.70;75.10
54192;DHT22;40101;53.002;6.488;2022-09-06T16:18:42;27.60;73.60
54192;DHT22;40101;53.002;6.488;2022-09-06T16:21:26;27.60;73.40
54192;DHT22;40101;53.002;6.488;2022-09-06T16:24:08;27.60;74.70
54192;DHT22;40101;53.002;6.488;2022-09-06T16:26:51;27.50;75.70
54192;DHT22;40101;53.002;6.488;2022-09-06T16:29:32;27.50;77.60
54192;DHT22;40101;53.002;6.488;2022-09-06T16:32:15;27.40;76.60
54192;DHT22;40101;53.002;6.488;2022-09-06T16:34:41;27.40;76.20
54192;DHT22;40101;53.002;6.488;2022-09-06T16:37:07;27.40;76.00
54192;DHT22;40101;53.002;6.488;2022-09-06T16:43:12;27.30;75.80
54192;DHT22;40101;53.002;6.488;2022-09-06T16:45:38;27.20;80.60
54192;DHT22;40101;53.002;6.488;2022-09-06T16:48:05;27.10;81.10
54192;DHT22;40101;53.002;6.488;2022-09-06T16:50:34;27.00;81.30
54192;DHT22;40101;53.002;6.488;2022-09-06T16:53:00;26.80;82.30
54192;DHT22;40101;53.002;6.488;2022-09-06T16:55:25;26.80;82.70
54192;DHT22;40101;53.002;6.488;2022-09-06T16:57:51;26.60;83.90
54192;DHT22;40101;53.002;6.488;2022-09-06T17:00:17;26.50;84.70
54192;DHT22;40101;53.002;6.488;2022-09-06T17:02:43;26.30;86.00
54192;DHT22;40101;53.002;6.488;2022-09-06T17:05:12;26.10;87.30
54192;DHT22;40101;53.002;6.488;2022-09-06T17:07:39;26.00;88.20
54192;DHT22;40101;53.002;6.488;2022-09-06T17:10:05;25.90;88.90
54192;DHT22;40101;53.002;6.488;2022-09-06T17:12:31;25.80;89.30
54192;DHT22;40101;53.002;6.488;2022-09-06T17:14:57;25.60;89.80
54192;DHT22;40101;53.002;6.488;2022-09-06T17:17:23;25.60;90.20
54192;DHT22;40101;53.002;6.488;2022-09-06T17:19:49;25.50;90.30
54192;DHT22;40101;53.002;6.488;2022-09-06T17:22:14;25.40;90.40
54192;DHT22;40101;53.002;6.488;2022-09-06T17:24:40;25.30;90.60
54192;DHT22;40101;53.002;6.488;2022-09-06T17:27:07;25.20;90.80
54192;DHT22;40101;53.002;6.488;2022-09-06T17:29:33;25.20;90.90
54192;DHT22;40101;53.002;6.488;2022-09-06T17:31:59;25.20;91.10
54192;DHT22;40101;53.002;6.488;2022-09-06T17:34:25;25.10;91.30
54192;DHT22;40101;53.002;6.488;2022-09-06T17:36:54;25.00;91.70
54192;DHT22;40101;53.002;6.488;2022-09-06T17:39:20;25.00;92.00
54192;DHT22;40101;53.002;6.488;2022-09-06T17:41:48;25.00;92.50
54192;DHT22;40101;53.002;6.488;2022-09-06T17:46:44;24.70;93.30